Eva, TN

10:56 AM CDT on May 24, 2015 (GMT -0500)
McKellar-Sipes Regional | | Change Station
CLOSE
Current Station
Airport
Location: Jackson,
Elevation: 433 ft
Nearby Weather Stations

Elev 433 ft 35.59 °N, 88.92 °W | Updated 1 hour ago

Clear
Clear
78 °F
Feels Like 78 °F
N
10
Wind Variable Wind from SSE
Gusts 20 mph

Today
High -- | Low -- °F
--% Chance of Precip.
Yesterday
High -- | Low -- °F
Precip. -- in
5:40 AM 7:58 PM
Waxing Crescent, 40% visible
Pressure 30.14 in
Visibility 10.0 miles
Clouds Scattered Clouds 6500 ft
Dew Point 59 °F
Humidity 52%
Rainfall 0.00 in
Snow Depth Not available.
UV 6 out of 12
Pollen 6.30 out of 12
Air Quality Not available.
Flu Activity Sporadic
METAR KMKL 241453Z 16009G17KT 10SM SCT065 26/15 A3015 RMK AO2 SLP206 T02560150 58004

More Conditions Fewer Conditions

Pressure 30.14 in
Visibility 10.0 miles
Clouds Scattered Clouds 6500 ft
Dew Point 59 °F
Humidity 52%
Rainfall 0.00 in
Snow Depth Not available.
UV 6 out of 12
Pollen 6.30 out of 12
Air Quality Not available.
Flu Activity Sporadic
METAR KMKL 241453Z 16009G17KT 10SM SCT065 26/15 A3015 RMK AO2 SLP206 T02560150 58004

More Conditions Fewer Conditions

10-Day Weather Forecast

Almanac

Astronomy

May. 24, 2015 Rise Set
Actual Time
Civil Twilight
Nautical Twilight
Astronomical Twilight
Moon
Length of Visible Light
Length of Day
Tomorrow will be .
, % of the Moon is Illuminated

Today's Extremes

State Highs State Lows

Community

WunderPhotos

Upload Photos

1,823,779 photos uploaded!

WunderBlogs® & News

Nearby

Air Quality

  Air Quality AQ Index Pollutant
Not available.

Snow Depth

Station Depth Elevation

Earthquake Activity

City Distance Mag. Time & Date
Minimum magnitude displayed is 2.5.

Coastal Water Temperatures

Place Temperature

Stations

Nearby Weather Stations

Station Location Temp. Windchill Dew Point Humidity Wind Precip. Elev Updated Type